Time;durP1;ratioP1;P1;durP2;ratioP2;P2;SDS_P1;SDS_P2;PMS_P1;PMS_P2;Temp;Humidity;BMP_temperature;BMP_pressure;BME280_temperature;BME280_humidity;BME280_pressure;Samples;Min_cycle;Max_cycle;Signal;HPM_P1;HPM_P2
2022/10/19 00:01:21;;;;;;;3.42;0.70;;;8.40;99.90;;;;;;5057720;28;20072;-81
2022/10/19 00:03:50;;;;;;;1.67;0.68;;;8.40;99.90;;;;;;5074332;28;20044;-81
2022/10/19 00:06:24;;;;;;;1.13;0.70;;;8.40;99.90;;;;;;5074583;28;20466;-81
2022/10/19 00:08:59;;;;;;;0.57;0.55;;;8.40;99.90;;;;;;5074070;28;20048;-81
2022/10/19 00:11:25;;;;;;;0.98;0.45;;;8.50;99.90;;;;;;5074192;28;20091;-81
2022/10/19 00:13:52;;;;;;;1.55;0.95;;;8.60;99.90;;;;;;5074258;28;20041;-81
2022/10/19 00:16:18;;;;;;;1.70;0.70;;;8.90;99.90;;;;;;5057458;28;20040;-81
2022/10/19 00:18:45;;;;;;;0.68;0.47;;;8.70;99.90;;;;;;5057273;28;20037;-81
2022/10/19 00:21:13;;;;;;;0.98;0.50;;;8.80;99.90;;;;;;5057418;28;20074;-81
2022/10/19 00:23:39;;;;;;;2.17;0.65;;;8.90;99.90;;;;;;5073989;28;20040;-81
2022/10/19 00:26:05;;;;;;;1.52;0.40;;;9.00;99.90;;;;;;5041064;28;20378;-81
2022/10/19 00:28:31;;;;;;;1.10;0.47;;;9.10;99.90;;;;;;5073500;28;20044;-81
2022/10/19 00:31:05;;;;;;;1.05;0.50;;;9.10;99.90;;;;;;5050004;28;20059;-81
2022/10/19 00:33:31;;;;;;;1.27;0.60;;;9.20;99.90;;;;;;5073783;28;20040;-81
2022/10/19 00:35:57;;;;;;;1.02;0.50;;;9.30;99.90;;;;;;5073730;28;20127;-81
2022/10/19 00:38:23;;;;;;;1.17;0.65;;;9.30;99.90;;;;;;5073586;28;20132;-81
2022/10/19 00:40:49;;;;;;;1.27;0.50;;;9.40;99.90;;;;;;5057078;28;20182;-81
2022/10/19 00:43:20;;;;;;;1.05;0.60;;;9.40;99.90;;;;;;5056715;28;20086;-81
2022/10/19 00:45:46;;;;;;;2.35;1.08;;;9.40;99.90;;;;;;5073395;28;20083;-81
2022/10/19 00:48:20;;;;;;;0.45;0.40;;;9.50;99.90;;;;;;5073710;28;20071;-82
2022/10/19 00:50:47;;;;;;;1.52;0.77;;;9.50;99.90;;;;;;5073215;28;20047;-82
2022/10/19 00:53:13;;;;;;;2.15;0.70;;;9.50;99.90;;;;;;5023751;28;20036;-82
2022/10/19 00:55:40;;;;;;;3.05;0.75;;;9.50;99.90;;;;;;5055867;28;20089;-82
2022/10/19 00:58:07;;;;;;;1.27;0.65;;;9.50;99.90;;;;;;5072912;28;20045;-82
2022/10/19 01:00:33;;;;;;;2.08;0.63;;;9.50;99.90;;;;;;5056580;28;20036;-82
2022/10/19 01:03:00;;;;;;;0.98;0.63;;;9.60;99.90;;;;;;5073360;28;20117;-81
2022/10/19 01:05:27;;;;;;;1.25;0.60;;;9.60;99.90;;;;;;5057069;28;20033;-84
2022/10/19 01:07:53;;;;;;;1.10;0.85;;;9.60;99.90;;;;;;5072976;28;20421;-84
2022/10/19 01:10:27;;;;;;;1.83;0.68;;;9.60;99.90;;;;;;5072964;28;20044;-84
2022/10/19 01:13:06;;;;;;;0.80;0.77;;;9.60;99.90;;;;;;5089877;22;20125;-81
2022/10/19 01:15:53;;;;;;;0.73;0.43;;;9.70;99.90;;;;;;5076460;28;20047;-82
2022/10/19 01:18:48;;;;;;;1.20;0.40;;;9.70;99.90;;;;;;5093052;28;20048;-82
2022/10/19 01:21:57;;;;;;;0.50;0.38;;;9.70;99.90;;;;;;5092862;28;20091;-81
2022/10/19 01:24:39;;;;;;;1.08;0.68;;;9.80;99.90;;;;;;4996200;28;20438;-81
2022/10/19 01:27:26;;;;;;;1.33;0.75;;;9.80;99.90;;;;;;5089197;28;20067;-81
2022/10/19 01:29:59;;;;;;;;;;;9.80;99.90;;;;;;5076472;28;20134;-81
2022/10/19 01:32:36;;;;;;;1.83;0.85;;;9.80;99.90;;;;;;5090603;28;20044;-81
2022/10/19 01:35:30;;;;;;;5.47;0.88;;;9.90;99.90;;;;;;5085090;28;20044;-81
2022/10/19 01:38:18;;;;;;;2.13;1.05;;;9.90;99.90;;;;;;5092273;28;20114;-84
2022/10/19 01:41:22;;;;;;;1.08;0.75;;;9.90;99.90;;;;;;5092841;28;20044;-84
2022/10/19 01:43:59;;;;;;;0.95;0.50;;;9.80;99.90;;;;;;5093064;28;20128;-84
2022/10/19 01:46:43;;;;;;;1.75;0.90;;;9.90;99.90;;;;;;5092288;28;20050;-83
2022/10/19 01:49:27;;;;;;;1.50;0.80;;;9.90;99.90;;;;;;5092588;28;20039;-83
2022/10/19 01:52:03;;;;;;;1.27;0.70;;;9.90;99.90;;;;;;5075924;28;20375;-84
2022/10/19 01:54:35;;;;;;;2.17;0.80;;;9.90;99.90;;;;;;5092615;28;20032;-81
2022/10/19 01:57:05;;;;;;;1.33;0.85;;;9.90;99.90;;;;;;5091844;28;20057;-82
2022/10/19 01:59:32;;;;;;;0.77;0.70;;;9.90;99.90;;;;;;5091333;28;20374;-81
2022/10/19 02:01:59;;;;;;;3.65;1.00;;;9.90;99.90;;;;;;5084695;28;20044;-81
2022/10/19 02:04:25;;;;;;;0.50;0.50;;;9.90;99.90;;;;;;5092692;28;20054;-82
2022/10/19 02:06:54;;;;;;;0.60;0.57;;;10.00;99.90;;;;;;5092190;28;20090;-81
2022/10/19 02:09:20;;;;;;;3.42;0.90;;;9.90;99.90;;;;;;5075461;28;20047;-82
2022/10/19 02:11:50;;;;;;;3.40;2.55;;;10.00;99.90;;;;;;5109240;28;20039;-81
2022/10/19 02:14:21;;;;;;;1.75;0.73;;;9.90;99.90;;;;;;5092040;28;20056;-81
2022/10/19 02:17:08;;;;;;;3.20;0.82;;;10.00;99.90;;;;;;5092115;28;20040;-81
2022/10/19 02:19:33;;;;;;;5.57;0.98;;;9.90;99.90;;;;;;5075298;28;20036;-82
2022/10/19 02:21:59;;;;;;;2.45;0.93;;;9.80;99.90;;;;;;5075042;28;20036;-82
2022/10/19 02:24:25;;;;;;;4.50;1.08;;;9.80;99.90;;;;;;5092181;28;20048;-81
2022/10/19 02:26:52;;;;;;;1.40;0.82;;;9.80;99.90;;;;;;5075002;28;20051;-84
2022/10/19 02:29:17;;;;;;;2.15;0.77;;;9.70;99.90;;;;;;5092133;28;20044;-84
2022/10/19 02:31:44;;;;;;;4.30;1.10;;;9.80;99.90;;;;;;5058453;28;20040;-84
2022/10/19 02:34:10;;;;;;;1.23;0.50;;;9.80;99.90;;;;;;5075220;28;20490;-84
2022/10/19 02:36:36;;;;;;;1.30;0.60;;;9.80;99.90;;;;;;5092271;28;20518;-84
2022/10/19 02:39:02;;;;;;;2.15;0.55;;;9.80;99.90;;;;;;5075034;28;20119;-84
2022/10/19 02:41:59;;;;;;;3.50;0.88;;;9.80;99.90;;;;;;5092232;28;20050;-84
2022/10/19 02:44:38;;;;;;;0.52;0.30;;;9.80;99.90;;;;;;5092152;28;20044;-82
2022/10/19 02:47:26;;;;;;;0.52;0.50;;;9.90;99.90;;;;;;5091929;28;20255;-82
2022/10/19 02:49:52;;;;;;;0.80;0.60;;;9.90;99.90;;;;;;5080148;28;20115;-82
2022/10/19 02:52:18;;;;;;;0.88;0.60;;;9.90;99.90;;;;;;5091799;28;20698;-81
2022/10/19 02:54:44;;;;;;;0.57;0.50;;;9.90;99.90;;;;;;5091911;28;20130;-81
2022/10/19 02:57:31;;;;;;;0.75;0.52;;;9.80;99.90;;;;;;5091779;28;20090;-81
2022/10/19 02:59:57;;;;;;;5.20;0.80;;;9.80;99.90;;;;;;5091495;28;20040;-81
2022/10/19 03:02:23;;;;;;;4.95;0.90;;;9.70;99.90;;;;;;5091738;28;20047;-81
2022/10/19 03:04:49;;;;;;;3.28;0.55;;;9.70;99.90;;;;;;5092152;28;20044;-81
2022/10/19 03:07:17;;;;;;;0.60;0.50;;;9.60;99.90;;;;;;5091515;28;20051;-81
2022/10/19 03:09:43;;;;;;;1.65;0.70;;;9.50;99.90;;;;;;5074954;28;20440;-81
2022/10/19 03:12:10;;;;;;;2.75;0.63;;;9.40;99.90;;;;;;5074556;28;20521;-81
2022/10/19 03:14:36;;;;;;;0.47;0.40;;;9.40;99.90;;;;;;5091773;28;20048;-81
2022/10/19 03:17:02;;;;;;;1.77;0.52;;;9.20;99.90;;;;;;5091566;28;20509;-84
2022/10/19 03:19:27;;;;;;;1.85;0.63;;;9.20;99.90;;;;;;5092912;28;20087;-84
2022/10/19 03:21:53;;;;;;;0.63;0.40;;;9.10;99.90;;;;;;5078602;28;20062;-84
2022/10/19 03:24:19;;;;;;;2.60;0.70;;;9.00;99.90;;;;;;5078673;28;20036;-84
2022/10/19 03:26:44;;;;;;;2.35;0.57;;;8.90;99.90;;;;;;5078183;28;20046;-83
2022/10/19 03:29:10;;;;;;;1.27;0.32;;;9.20;99.90;;;;;;5095516;28;20036;-84
2022/10/19 03:31:36;;;;;;;4.03;0.77;;;8.70;99.90;;;;;;5095118;28;20486;-83
2022/10/19 03:34:02;;;;;;;2.80;0.60;;;8.60;99.90;;;;;;5095090;28;20062;-84
2022/10/19 03:36:32;;;;;;;1.85;0.50;;;8.60;99.90;;;;;;5094939;28;20067;-83
2022/10/19 03:39:00;;;;;;;0.90;0.30;;;8.50;99.90;;;;;;5095143;28;20040;-84
2022/10/19 03:41:28;;;;;;;1.33;0.60;;;8.40;99.90;;;;;;5095226;28;20385;-84
2022/10/19 03:43:55;;;;;;;0.20;0.20;;;8.40;99.90;;;;;;5095439;28;20396;-84
2022/10/19 03:46:22;;;;;;;0.30;0.30;;;8.20;99.90;;;;;;5095601;28;20498;-83
2022/10/19 03:48:47;;;;;;;2.55;0.77;;;8.10;99.90;;;;;;5094668;28;20072;-83
2022/10/19 03:51:16;;;;;;;1.55;0.35;;;8.00;99.90;;;;;;5077992;28;20578;-81
2022/10/19 03:53:43;;;;;;;1.73;0.50;;;8.00;99.90;;;;;;5094768;28;20050;-80
2022/10/19 03:56:15;;;;;;;1.73;0.70;;;7.90;99.90;;;;;;5094643;28;20038;-81
2022/10/19 03:58:42;;;;;;;0.55;0.30;;;7.80;99.90;;;;;;5094747;28;20036;-81
2022/10/19 04:01:14;;;;;;;2.20;0.47;;;8.40;99.90;;;;;;5077726;28;20390;-81
2022/10/19 04:03:40;;;;;;;1.85;0.57;;;7.80;99.90;;;;;;5077996;28;20047;-81
2022/10/19 04:06:17;;;;;;;2.17;0.55;;;7.80;99.90;;;;;;5094800;28;20040;-81
2022/10/19 04:08:46;;;;;;;0.98;0.45;;;7.90;99.90;;;;;;5077489;28;20043;-80
2022/10/19 04:11:14;;;;;;;1.30;0.52;;;8.00;99.90;;;;;;5094304;28;20051;-81
2022/10/19 04:13:40;;;;;;;0.75;0.30;;;7.70;99.90;;;;;;5077346;28;20084;-81
2022/10/19 04:16:06;;;;;;;2.03;0.70;;;7.70;99.90;;;;;;5061160;28;20528;-81
2022/10/19 04:18:32;;;;;;;1.98;0.50;;;7.70;99.90;;;;;;5094661;28;20036;-81
2022/10/19 04:21:03;;;;;;;2.03;0.70;;;7.70;99.90;;;;;;5077570;28;20435;-81
2022/10/19 04:23:31;;;;;;;0.57;0.30;;;7.70;99.90;;;;;;5094313;28;20044;-83
2022/10/19 04:26:02;;;;;;;0.40;0.40;;;7.70;99.90;;;;;;5094070;28;20079;-83
2022/10/19 04:28:28;;;;;;;4.40;1.50;;;7.90;99.90;;;;;;5077005;28;20040;-83
2022/10/19 04:30:54;;;;;;;3.08;0.85;;;7.70;99.90;;;;;;5092777;28;20044;-83
2022/10/19 04:33:19;;;;;;;0.22;0.22;;;7.70;99.90;;;;;;5093970;28;20169;-83
2022/10/19 04:35:45;;;;;;;2.63;0.57;;;7.80;99.90;;;;;;5093792;28;20127;-83
2022/10/19 04:38:11;;;;;;;1.77;0.60;;;7.80;99.90;;;;;;5094366;28;20036;-83
2022/10/19 04:40:37;;;;;;;1.90;0.60;;;7.80;99.90;;;;;;5093896;28;20124;-81
2022/10/19 04:43:03;;;;;;;1.33;0.70;;;7.80;99.90;;;;;;5093724;28;20040;-81
2022/10/19 04:45:29;;;;;;;1.17;0.50;;;8.00;99.90;;;;;;5077226;28;20083;-81
2022/10/19 04:47:55;;;;;;;2.75;0.68;;;7.80;99.90;;;;;;5093308;28;20040;-81
2022/10/19 04:50:25;;;;;;;1.88;0.60;;;8.10;99.90;;;;;;5076669;28;20040;-80
2022/10/19 04:52:51;;;;;;;0.85;0.52;;;7.90;99.90;;;;;;5076224;28;20032;-81
2022/10/19 04:55:17;;;;;;;1.75;0.65;;;7.90;99.90;;;;;;5093280;28;20051;-81
2022/10/19 04:57:42;;;;;;;1.05;0.43;;;7.90;99.90;;;;;;5093563;28;20032;-81
2022/10/19 05:00:09;;;;;;;4.15;0.85;;;8.00;99.90;;;;;;5060283;28;20078;-81
2022/10/19 05:02:34;;;;;;;1.30;0.50;;;8.00;99.90;;;;;;5060056;28;20463;-81
2022/10/19 05:05:00;;;;;;;4.35;0.70;;;8.00;99.90;;;;;;5093058;28;20071;-81
2022/10/19 05:07:26;;;;;;;2.30;0.60;;;8.00;99.90;;;;;;5093221;28;20108;-81
2022/10/19 05:09:51;;;;;;;3.22;0.60;;;8.00;99.90;;;;;;5093186;28;20036;-81
2022/10/19 05:12:17;;;;;;;1.30;0.68;;;8.00;99.90;;;;;;5093169;28;20040;-81
2022/10/19 05:14:43;;;;;;;1.20;0.60;;;8.00;99.90;;;;;;5076358;28;20127;-81
2022/10/19 05:17:08;;;;;;;5.10;0.75;;;8.00;99.90;;;;;;5092429;28;20509;-81
2022/10/19 05:19:34;;;;;;;1.33;0.60;;;8.00;99.90;;;;;;5092857;28;20078;-81
2022/10/19 05:22:00;;;;;;;3.53;0.82;;;8.00;99.90;;;;;;5092350;28;20036;-81
2022/10/19 05:24:26;;;;;;;2.22;0.95;;;8.00;99.90;;;;;;5075621;28;20043;-81
2022/10/19 05:26:51;;;;;;;3.95;1.23;;;8.10;99.90;;;;;;5092688;28;20047;-81
2022/10/19 05:29:17;;;;;;;0.95;0.70;;;8.10;99.90;;;;;;5076292;28;20051;-81
2022/10/19 05:31:43;;;;;;;3.65;1.02;;;8.20;99.90;;;;;;5092995;28;20496;-84
2022/10/19 05:34:08;;;;;;;2.40;0.82;;;8.20;99.90;;;;;;5076063;28;20051;-83
2022/10/19 05:36:37;;;;;;;3.85;0.77;;;8.20;99.90;;;;;;5075514;28;20036;-83
2022/10/19 05:39:06;;;;;;;2.22;0.57;;;8.30;99.90;;;;;;5087348;28;20044;-84
2022/10/19 05:41:32;;;;;;;5.88;1.35;;;8.30;99.90;;;;;;5068061;28;20520;-83
2022/10/19 05:43:59;;;;;;;3.40;0.73;;;8.30;99.90;;;;;;5092650;28;20052;-83
2022/10/19 05:46:27;;;;;;;2.08;0.77;;;8.40;99.90;;;;;;5075494;28;20192;-82
2022/10/19 05:48:55;;;;;;;2.88;0.70;;;8.40;99.90;;;;;;5092285;28;20071;-81
2022/10/19 05:51:21;;;;;;;2.63;0.88;;;8.40;99.90;;;;;;5059234;28;20036;-81
2022/10/19 05:53:48;;;;;;;2.88;1.10;;;8.50;99.90;;;;;;5075736;28;20048;-81
2022/10/19 05:56:22;;;;;;;4.18;1.50;;;8.50;99.90;;;;;;5075881;28;20036;-81
2022/10/19 05:58:48;;;;;;;7.00;1.80;;;8.60;99.90;;;;;;5092097;28;20078;-81
2022/10/19 06:01:17;;;;;;;2.95;1.27;;;8.80;99.90;;;;;;5092008;28;20072;-81
2022/10/19 06:03:43;;;;;;;4.22;1.90;;;8.70;99.90;;;;;;5075996;28;20103;-84
2022/10/19 06:06:09;;;;;;;4.88;1.42;;;8.70;99.90;;;;;;5092436;28;20088;-83
2022/10/19 06:08:36;;;;;;;3.60;1.85;;;8.80;99.90;;;;;;5075573;28;20114;-83
2022/10/19 06:11:06;;;;;;;5.20;1.90;;;8.80;99.90;;;;;;5092303;28;20406;-84
2022/10/19 06:13:32;;;;;;;3.35;1.27;;;8.90;99.90;;;;;;5092008;28;20059;-83
2022/10/19 06:15:58;;;;;;;7.43;1.38;;;8.90;99.90;;;;;;5072245;28;20390;-84
2022/10/19 06:18:24;;;;;;;3.60;1.42;;;9.00;99.90;;;;;;5091183;28;20043;-84
2022/10/19 06:20:51;;;;;;;5.18;1.33;;;9.00;99.90;;;;;;5074640;28;20094;-80
2022/10/19 06:23:16;;;;;;;3.72;0.70;;;9.00;99.90;;;;;;5081592;28;20037;-81
2022/10/19 06:25:42;;;;;;;3.10;1.20;;;9.10;99.90;;;;;;5068974;28;20058;-81
2022/10/19 06:28:09;;;;;;;1.80;0.93;;;9.10;99.90;;;;;;5072139;28;20044;-81
2022/10/19 06:30:40;;;;;;;2.22;1.13;;;9.20;99.90;;;;;;5073213;28;20067;-80
2022/10/19 06:33:07;;;;;;;3.88;0.77;;;9.20;99.90;;;;;;5076202;28;20072;-81
2022/10/19 06:35:33;;;;;;;5.47;1.67;;;9.20;99.90;;;;;;5090943;28;20035;-81
2022/10/19 06:37:59;;;;;;;3.03;1.10;;;9.30;99.90;;;;;;5074888;28;20032;-81
2022/10/19 06:40:24;;;;;;;3.58;1.02;;;9.30;99.90;;;;;;5058540;28;20130;-81
2022/10/19 06:42:50;;;;;;;4.47;0.80;;;9.40;99.90;;;;;;5075116;28;20462;-81
2022/10/19 06:45:16;;;;;;;2.67;1.05;;;9.40;99.90;;;;;;5092110;28;20604;-81
2022/10/19 06:47:42;;;;;;;2.65;0.93;;;9.40;99.90;;;;;;5058375;28;20119;-81
2022/10/19 06:50:08;;;;;;;2.50;0.75;;;9.40;99.90;;;;;;5092179;28;20036;-81
2022/10/19 06:52:34;;;;;;;3.70;1.00;;;9.50;99.90;;;;;;5075404;28;20177;-81
2022/10/19 06:55:00;;;;;;;6.22;1.25;;;9.50;99.90;;;;;;5077279;28;20043;-84
2022/10/19 06:57:27;;;;;;;3.33;1.48;;;9.60;99.90;;;;;;5079235;28;20039;-84
2022/10/19 06:59:53;;;;;;;4.57;1.17;;;9.70;99.90;;;;;;5096057;28;20394;-84
2022/10/19 07:02:19;;;;;;;2.03;0.80;;;9.80;99.90;;;;;;5079180;28;20483;-83
2022/10/19 07:04:45;;;;;;;6.25;1.27;;;9.90;99.90;;;;;;5079404;28;20044;-84
2022/10/19 07:07:11;;;;;;;4.63;1.10;;;10.10;99.90;;;;;;5061906;28;20044;-84
2022/10/19 07:09:36;;;;;;;7.20;1.25;;;10.20;99.90;;;;;;5095662;28;20188;-83
2022/10/19 07:12:02;;;;;;;2.08;1.23;;;10.30;99.90;;;;;;5078540;28;20071;-81
2022/10/19 07:14:28;;;;;;;4.68;1.50;;;10.50;99.90;;;;;;5095401;28;20394;-81
2022/10/19 07:16:54;;;;;;;2.95;1.25;;;10.40;99.90;;;;;;5078701;28;20038;-81
2022/10/19 07:19:29;;;;;;;4.68;0.82;;;11.00;99.90;;;;;;5095384;28;20051;-81
2022/10/19 07:21:55;;;;;;;4.00;0.63;;;11.20;99.90;;;;;;5078519;28;20079;-81
2022/10/19 07:24:21;;;;;;;6.18;0.98;;;11.20;99.90;;;;;;5078459;28;20072;-81
2022/10/19 07:26:47;;;;;;;6.22;1.15;;;11.30;99.90;;;;;;5095562;28;20173;-84
2022/10/19 07:29:13;;;;;;;9.38;2.35;;;11.30;99.90;;;;;;5078715;28;20073;-84
2022/10/19 07:31:38;;;;;;;3.60;1.08;;;11.40;99.90;;;;;;5078586;28;20050;-84
2022/10/19 07:34:04;;;;;;;4.93;0.70;;;11.50;99.90;;;;;;5078050;28;20452;-84
2022/10/19 07:36:32;;;;;;;3.33;1.30;;;11.60;99.90;;;;;;5078222;28;20123;-84
2022/10/19 07:39:00;;;;;;;2.25;0.88;;;11.60;99.90;;;;;;5095304;28;20379;-84
2022/10/19 07:41:26;;;;;;;5.97;1.48;;;11.60;99.90;;;;;;5095516;28;20036;-84
2022/10/19 07:43:52;;;;;;;6.30;1.50;;;11.60;99.90;;;;;;5094951;28;20043;-84
2022/10/19 07:46:24;;;;;;;3.72;0.93;;;11.60;99.90;;;;;;5077925;28;20505;-84
2022/10/19 07:48:50;;;;;;;5.60;1.13;;;11.70;99.90;;;;;;5078146;28;20059;-84
2022/10/19 07:51:17;;;;;;;2.17;0.50;;;11.70;99.90;;;;;;5094603;28;20044;-84
2022/10/19 07:53:43;;;;;;;3.47;1.10;;;11.80;99.90;;;;;;5078129;28;20375;-84
2022/10/19 07:56:11;;;;;;;3.17;0.73;;;11.90;99.90;;;;;;5094681;28;20047;-84
2022/10/19 07:58:38;;;;;;;2.47;0.68;;;12.00;99.90;;;;;;5094898;28;20071;-84
2022/10/19 08:01:15;;;;;;;3.67;1.23;;;12.00;99.90;;;;;;5095049;28;20129;-84
2022/10/19 08:03:41;;;;;;;0.88;0.32;;;12.10;99.90;;;;;;5094768;28;20054;-84
2022/10/19 08:06:10;;;;;;;6.53;0.98;;;12.30;99.90;;;;;;5094148;28;20047;-84
2022/10/19 08:08:36;;;;;;;0.65;0.45;;;12.30;99.90;;;;;;5090236;28;20043;-84
2022/10/19 08:11:18;;;;;;;4.57;0.90;;;12.40;99.90;;;;;;5074124;28;20490;-84
2022/10/19 08:13:44;;;;;;;4.88;1.20;;;12.50;99.90;;;;;;5074138;28;20061;-84
2022/10/19 08:16:43;;;;;;;2.28;0.73;;;12.60;99.90;;;;;;5073983;28;20482;-84
2022/10/19 08:19:13;;;;;;;4.75;0.85;;;12.80;99.90;;;;;;5074170;28;20075;-81
2022/10/19 08:21:42;;;;;;;3.58;1.38;;;12.80;99.90;;;;;;5057322;28;20044;-81
2022/10/19 08:24:09;;;;;;;2.03;0.68;;;12.90;99.90;;;;;;5057341;28;20047;-81
2022/10/19 08:26:39;;;;;;;4.93;0.88;;;12.90;99.90;;;;;;5073841;28;20147;-81
2022/10/19 08:29:13;;;;;;;4.40;0.88;;;12.90;99.90;;;;;;5073951;28;20127;-81
2022/10/19 08:31:41;;;;;;;2.47;0.73;;;13.00;99.90;;;;;;5073767;28;20041;-81
2022/10/19 08:34:07;;;;;;;1.67;0.93;;;13.00;99.90;;;;;;5063991;28;20079;-82
2022/10/19 08:36:34;;;;;;;2.63;0.70;;;13.00;99.90;;;;;;5094131;28;20483;-82
2022/10/19 08:39:01;;;;;;;2.90;0.80;;;13.00;99.90;;;;;;5094186;28;20058;-82
2022/10/19 08:41:30;;;;;;;3.50;0.70;;;13.10;99.90;;;;;;5077218;28;20040;-82
2022/10/19 08:43:55;;;;;;;3.10;0.80;;;13.20;99.90;;;;;;5093858;28;20454;-82
2022/10/19 08:46:48;;;;;;;6.05;1.00;;;13.30;99.90;;;;;;5093668;28;20157;-82
2022/10/19 08:49:19;;;;;;;5.55;0.98;;;13.30;99.90;;;;;;5093884;28;20043;-82
2022/10/19 08:51:49;;;;;;;3.45;1.05;;;13.30;99.90;;;;;;5093775;28;20047;-84
2022/10/19 08:54:16;;;;;;;4.60;0.85;;;13.40;99.90;;;;;;5077293;28;20044;-84
2022/10/19 08:57:07;;;;;;;4.07;1.17;;;13.30;99.90;;;;;;5060342;28;20040;-84
2022/10/19 09:00:04;;;;;;;5.05;0.77;;;13.40;99.90;;;;;;5078548;28;20390;-84
2022/10/19 09:02:38;;;;;;;2.17;0.55;;;13.40;99.90;;;;;;5056906;28;20364;-84
2022/10/19 09:05:33;;;;;;;2.92;0.95;;;13.40;99.90;;;;;;5056581;28;20044;-84
2022/10/19 09:07:59;;;;;;;2.03;0.75;;;13.40;99.90;;;;;;5050523;28;20135;-81
2022/10/19 09:10:34;;;;;;;2.75;0.55;;;13.50;99.90;;;;;;5056521;28;20136;-81
2022/10/19 09:13:21;;;;;;;1.27;0.73;;;13.50;99.90;;;;;;5072725;28;20052;-81
2022/10/19 09:15:50;;;;;;;6.65;1.02;;;13.50;99.90;;;;;;5056334;28;20048;-81
2022/10/19 09:18:27;;;;;;;4.07;0.50;;;13.50;99.90;;;;;;5055832;28;20399;-81
2022/10/19 09:21:08;;;;;;;1.95;0.50;;;13.50;99.90;;;;;;5072798;28;20036;-81
2022/10/19 09:23:55;;;;;;;5.03;0.95;;;13.50;99.90;;;;;;5056414;28;20079;-84
2022/10/19 09:26:24;;;;;;;4.07;0.90;;;13.50;99.90;;;;;;5056070;28;20041;-84
2022/10/19 09:29:08;;;;;;;8.02;1.50;;;13.60;99.90;;;;;;5073107;28;20051;-84
2022/10/19 09:31:38;;;;;;;2.63;1.17;;;13.50;99.90;;;;;;5072706;28;20049;-84
2022/10/19 09:34:13;;;;;;;5.55;1.05;;;13.40;99.90;;;;;;5079474;28;20074;-84
2022/10/19 09:36:47;;;;;;;5.93;0.90;;;13.40;99.90;;;;;;5093001;28;20448;-84
2022/10/19 09:39:13;;;;;;;4.55;1.05;;;13.40;99.90;;;;;;5075923;28;20444;-84
2022/10/19 09:41:51;;;;;;;4.53;1.25;;;13.40;99.90;;;;;;5092710;28;20481;-82
2022/10/19 09:44:17;;;;;;;5.13;2.10;;;13.50;99.90;;;;;;5092625;28;20040;-82
2022/10/19 09:47:10;;;;;;;5.32;1.30;;;13.60;99.90;;;;;;5059116;28;20043;-82
2022/10/19 09:49:42;;;;;;;2.83;0.73;;;13.70;99.90;;;;;;5079317;28;20040;-81
2022/10/19 09:52:40;;;;;;;1.75;0.75;;;13.70;99.90;;;;;;5092533;28;20093;-81
2022/10/19 09:55:12;;;;;;;1.55;0.60;;;13.90;99.90;;;;;;5038517;28;20055;-81
2022/10/19 09:57:46;;;;;;;3.80;0.75;;;14.00;99.90;;;;;;5092553;28;20048;-81
2022/10/19 10:00:20;;;;;;;3.03;0.73;;;14.00;99.90;;;;;;5092541;28;20046;-81
2022/10/19 10:02:52;;;;;;;3.05;0.93;;;13.90;99.90;;;;;;5092332;28;20043;-81
2022/10/19 10:05:19;;;;;;;1.77;0.65;;;13.90;99.90;;;;;;5092967;28;20497;-81
2022/10/19 10:07:45;;;;;;;3.35;1.00;;;13.90;99.90;;;;;;5092464;28;20255;-81
2022/10/19 10:10:18;;;;;;;4.10;0.75;;;13.90;99.90;;;;;;5092635;28;20486;-81
2022/10/19 10:12:45;;;;;;;4.65;1.08;;;13.80;99.90;;;;;;5092371;28;20126;-81
2022/10/19 10:15:17;;;;;;;1.45;0.57;;;14.10;99.90;;;;;;5092349;28;20486;-84
2022/10/19 10:17:46;;;;;;;4.72;0.75;;;14.10;99.90;;;;;;5092390;28;20040;-84
2022/10/19 10:20:31;;;;;;;5.05;2.53;;;14.20;99.90;;;;;;5058749;28;20032;-84
2022/10/19 10:23:02;;;;;;;4.95;1.00;;;14.40;99.90;;;;;;5092088;28;20046;-84
2022/10/19 10:25:34;;;;;;;3.05;0.70;;;14.60;99.90;;;;;;5075406;28;20040;-84
2022/10/19 10:28:19;;;;;;;2.05;0.73;;;14.50;99.90;;;;;;5092846;28;20093;-85
2022/10/19 10:30:47;;;;;;;3.25;0.63;;;14.60;99.90;;;;;;5096450;28;20074;-82
2022/10/19 10:33:24;;;;;;;5.68;0.82;;;14.30;99.90;;;;;;5096258;28;20072;-82
2022/10/19 10:35:52;;;;;;;1.50;1.15;;;14.50;99.90;;;;;;5096374;28;20047;-82
2022/10/19 10:38:25;;;;;;;8.80;1.25;;;14.40;99.90;;;;;;5087177;28;20426;-82
2022/10/19 10:40:55;;;;;;;3.22;0.75;;;14.40;99.90;;;;;;5075996;28;20037;-82
2022/10/19 10:43:30;;;;;;;4.03;1.40;;;14.60;99.90;;;;;;5059272;28;20044;-82
2022/10/19 10:46:01;;;;;;;8.05;0.68;;;14.30;99.90;;;;;;5059174;28;20048;-82
2022/10/19 10:48:39;;;;;;;2.08;0.88;;;14.20;99.90;;;;;;5059570;28;20041;-82
2022/10/19 10:51:30;;;;;;;1.45;0.40;;;14.40;99.90;;;;;;5094100;28;20048;-81
2022/10/19 10:54:18;;;;;;;2.88;0.50;;;14.50;99.90;;;;;;5095943;28;20071;-81
2022/10/19 10:57:14;;;;;;;2.92;0.70;;;14.60;99.90;;;;;;5096014;28;20036;-81
2022/10/19 10:59:53;;;;;;;1.50;0.60;;;14.60;99.90;;;;;;5096256;28;20040;-81
2022/10/19 11:02:35;;;;;;;5.28;0.70;;;14.60;99.90;;;;;;5095971;28;20104;-81
2022/10/19 11:05:11;;;;;;;1.98;0.47;;;14.60;99.90;;;;;;5096189;28;20054;-81
2022/10/19 11:07:45;;;;;;;6.97;1.08;;;14.70;99.90;;;;;;5096125;28;20134;-81
2022/10/19 11:10:20;;;;;;;1.80;0.60;;;14.90;99.90;;;;;;5078845;28;20055;-81
2022/10/19 11:13:23;;;;;;;3.13;1.05;;;15.00;99.90;;;;;;5095516;28;20052;-82
2022/10/19 11:15:57;;;;;;;8.23;1.92;;;15.20;99.90;;;;;;5079016;28;20127;-81
2022/10/19 11:19:00;;;;;;;2.75;0.60;;;15.10;99.90;;;;;;5095752;28;20138;-81
2022/10/19 11:22:07;;;;;;;1.92;0.30;;;14.90;99.90;;;;;;5037456;28;20052;-82
2022/10/19 11:24:33;;;;;;;;;;;;;;;;;;5077271;28;20052;-82
2022/10/19 11:27:35;;;;;;;3.42;1.02;;;;;;;;;;5077544;28;19981;-82
2022/10/19 11:30:13;;;;;;;3.97;1.85;;;;;;;;;;5018052;28;20248;-82
2022/10/19 11:32:46;;;;;;;3.53;0.60;;;;;;;;;;5053825;28;20052;-82
2022/10/19 11:35:15;;;;;;;3.85;0.70;;;;;;;;;;5074012;28;20042;-82
2022/10/19 11:37:44;;;;;;;0.75;0.63;;;;;;;;;;5095080;28;20052;-81
2022/10/19 11:40:27;;;;;;;4.00;1.00;;;;;;;;;;5094434;28;20042;-81
2022/10/19 11:43:03;;;;;;;3.83;1.27;;;15.40;99.90;;;;;;5095348;28;20036;-81
2022/10/19 11:45:36;;;;;;;4.45;0.60;;;15.30;99.90;;;;;;5095240;28;20119;-81
2022/10/19 11:48:25;;;;;;;2.88;0.98;;;15.30;99.90;;;;;;5094946;28;20557;-81
2022/10/19 11:51:07;;;;;;;6.88;0.95;;;15.30;99.90;;;;;;5078225;28;20046;-81
2022/10/19 11:53:38;;;;;;;3.78;0.63;;;15.30;99.90;;;;;;5095022;28;20032;-83
2022/10/19 11:56:18;;;;;;;3.95;1.52;;;15.20;99.90;;;;;;5077816;28;20490;-82
2022/10/19 11:58:57;;;;;;;4.50;1.08;;;15.20;99.90;;;;;;5094856;28;20508;-82
2022/10/19 12:01:41;;;;;;;3.67;0.80;;;15.10;99.90;;;;;;5094955;28;20448;-82
2022/10/19 12:04:13;;;;;;;2.95;0.80;;;15.20;99.90;;;;;;5094731;28;20129;-82
2022/10/19 12:06:54;;;;;;;4.22;0.70;;;15.20;99.90;;;;;;5094692;28;20036;-82
2022/10/19 12:09:50;;;;;;;3.72;0.73;;;15.20;99.90;;;;;;5094843;28;20498;-82
2022/10/19 12:12:32;;;;;;;3.97;0.98;;;15.10;99.90;;;;;;5076271;28;20059;-83
2022/10/19 12:15:16;;;;;;;4.05;0.75;;;15.00;99.90;;;;;;5077547;28;20047;-82
2022/10/19 12:17:46;;;;;;;2.20;0.63;;;14.80;99.90;;;;;;5077683;28;20036;-82
2022/10/19 12:20:34;;;;;;;4.30;0.77;;;14.80;99.90;;;;;;5077714;28;20390;-82
2022/10/19 12:23:14;;;;;;;1.63;0.80;;;14.70;99.90;;;;;;5077556;28;20040;-82
2022/10/19 12:25:43;;;;;;;3.08;0.77;;;14.70;99.90;;;;;;5077319;28;20036;-82
2022/10/19 12:28:17;;;;;;;2.95;0.70;;;14.60;99.90;;;;;;5077346;28;20435;-85
2022/10/19 12:30:43;;;;;;;1.15;0.68;;;14.50;99.90;;;;;;5077371;28;20082;-85
2022/10/19 12:33:24;;;;;;;0.95;0.40;;;14.30;99.90;;;;;;5093976;28;20040;-84
2022/10/19 12:36:13;;;;;;;6.03;0.95;;;14.20;99.90;;;;;;5090694;28;20075;-84
2022/10/19 12:38:59;;;;;;;4.10;1.05;;;14.10;99.90;;;;;;5074019;28;20474;-85
2022/10/19 12:41:31;;;;;;;2.08;0.57;;;14.10;99.90;;;;;;5073997;28;20045;-85
2022/10/19 12:44:05;;;;;;;1.65;0.65;;;14.10;99.90;;;;;;5074012;28;20044;-82
2022/10/19 12:46:41;;;;;;;3.85;0.85;;;14.10;99.90;;;;;;5073564;28;20048;-82
2022/10/19 12:49:25;;;;;;;1.98;1.00;;;14.20;99.90;;;;;;5075725;28;20052;-82
2022/10/19 12:51:54;;;;;;;2.95;0.70;;;14.10;99.90;;;;;;5092603;28;20119;-82
2022/10/19 12:54:24;;;;;;;1.92;0.60;;;14.30;99.90;;;;;;5093778;28;20055;-82
2022/10/19 12:56:53;;;;;;;6.68;0.85;;;14.80;99.90;;;;;;5077030;28;20382;-82
2022/10/19 12:59:29;;;;;;;0.93;0.60;;;14.90;99.90;;;;;;5093859;28;20386;-82
2022/10/19 13:01:56;;;;;;;1.23;0.50;;;15.40;99.90;;;;;;5077029;28;20090;-81
2022/10/19 13:04:28;;;;;;;2.55;0.88;;;15.40;99.90;;;;;;5093607;28;20101;-81
2022/10/19 13:07:00;;;;;;;2.45;1.00;;;16.00;99.90;;;;;;5093501;28;20105;-82
2022/10/19 13:09:40;;;;;;;3.67;0.70;;;16.20;99.90;;;;;;5093715;28;20055;-82
2022/10/19 13:12:12;;;;;;;5.57;0.73;;;16.80;99.90;;;;;;5093439;28;20101;-82
2022/10/19 13:14:47;;;;;;;4.35;1.20;;;16.70;99.90;;;;;;5093268;28;20050;-82
2022/10/19 13:17:44;;;;;;;2.80;1.23;;;16.90;99.90;;;;;;5093639;28;20039;-85
2022/10/19 13:20:13;;;;;;;5.38;1.45;;;16.70;99.90;;;;;;5093209;28;20040;-85